Time;durP1;ratioP1;P1;durP2;ratioP2;P2;SDS_P1;SDS_P2;PMS_P1;PMS_P2;Temp;Humidity;BMP_temperature;BMP_pressure;BME280_temperature;BME280_humidity;BME280_pressure;Samples;Min_cycle;Max_cycle;Signal;HPM_P1;HPM_P2
2022/02/04 00:20:26;;;;;;;;;;;;;;;-7.15;82.81;99412.03;1682363;85;20207;-82
2022/02/04 00:25:48;;;;;;;;;;;;;;;-7.26;83.24;99409.98;1682196;85;20502;-82
2022/02/04 00:28:00;;;;;;;;;;;;;;;-7.33;83.95;99405.45;1669564;86;20109;-82
2022/02/04 00:30:29;;;;;;;;;;;;;;;-7.34;84.25;99397.66;1672449;85;20644;-75
2022/02/04 00:32:55;;;;;;;;;;;;;;;-7.38;84.19;99407.09;1657994;85;20515;-76
2022/02/04 00:35:32;;;;;;;;;;;;;;;-7.42;84.55;99405.85;1630684;87;21507;-76
2022/02/04 00:40:25;;;;;;;;;;;;;;;-7.45;85.30;99417.75;1626822;86;20134;-76
2022/02/04 00:42:53;;;;;;;;;;;;;;;-7.50;85.23;99412.20;1626532;87;20981;-78
2022/02/04 00:45:25;;;;;;;;;;;;;;;-7.56;85.42;99415.70;1626713;87;20179;-77
2022/02/04 00:47:53;;;;;;;;;;;;;;;-7.59;85.70;99415.28;1626076;87;21547;-76
2022/02/04 00:50:36;;;;;;;;;;;;;;;-7.64;85.77;99415.89;1626082;87;20118;-77
2022/02/04 00:53:14;;;;;;;;;;;;;;;-7.69;85.78;99411.67;1625434;87;20178;-78
2022/02/04 00:55:42;;;;;;;;;;;;;;;-7.76;85.89;99406.83;1625517;87;21000;-78
2022/02/04 01:27:58;;;;;;;;;;;;;;;-8.43;86.84;99400.47;1626423;88;20528;-75
2022/02/04 01:30:30;;;;;;;;;;;;;;;-8.50;86.78;99405.45;1626463;88;20464;-76
2022/02/04 01:32:52;;;;;;;;;;;;;;;-8.60;86.72;99397.81;1639200;87;20202;-75
2022/02/04 01:35:18;;;;;;;;;;;;;;;-8.66;86.98;99394.09;1617203;88;20176;-76
2022/02/04 01:37:45;;;;;;;;;;;;;;;-8.74;86.91;99398.27;1617349;88;20180;-75
2022/02/04 01:40:12;;;;;;;;;;;;;;;-8.81;87.19;99401.39;1617346;88;21690;-74
2022/02/04 01:42:38;;;;;;;;;;;;;;;-8.84;87.55;99403.62;1648974;86;20174;-76
2022/02/04 01:45:05;;;;;;;;;;;;;;;-8.89;87.60;99406.03;1649087;86;20186;-75
2022/02/04 01:47:31;;;;;;;;;;;;;;;-8.94;87.66;99409.78;1649066;86;21061;-76
2022/02/04 01:49:59;;;;;;;;;;;;;;;-8.97;87.84;99410.17;1648975;86;20133;-76
2022/02/04 01:52:25;;;;;;;;;;;;;;;-9.00;88.05;99412.20;1648978;86;21153;-76
2022/02/04 01:54:51;;;;;;;;;;;;;;;-8.99;88.53;99419.67;1649301;87;20138;-76
2022/02/04 01:57:17;;;;;;;;;;;;;;;-8.98;88.99;99419.16;1628766;87;20166;-82
2022/02/04 01:59:43;;;;;;;;;;;;;;;-9.01;89.01;99412.39;1649328;87;20354;-82
2022/02/04 02:02:12;;;;;;;;;;;;;;;-9.02;89.36;99417.40;1649129;86;20134;-83
2022/02/04 02:04:39;;;;;;;;;;;;;;;-9.06;89.32;99416.14;1649062;87;22151;-82
2022/02/04 02:07:11;;;;;;;;;;;;;;;-9.12;89.09;99409.75;1649006;86;20154;-82
2022/02/04 02:09:51;;;;;;;;;;;;;;;-9.17;88.94;99411.34;1648821;87;21022;-82
2022/02/04 02:12:06;;;;;;;;;;;;;;;-9.24;88.94;99412.61;1646223;87;20584;-77
2022/02/04 02:14:32;;;;;;;;;;;;;;;-9.30;88.79;99421.38;1649067;87;20186;-78
2022/02/04 02:33:11;;;;;;;;;;;;;;;-9.37;88.64;99421.32;1648991;87;21984;-78
2022/02/04 02:36:36;;;;;;;;;;;;;;;-9.71;89.99;99423.33;1607176;89;20208;-80
2022/02/04 02:44:09;;;;;;;;;;;;;;;-9.73;89.94;99420.04;1607085;89;21589;-82
2022/02/04 02:46:41;;;;;;;;;;;;;;;-9.73;90.75;99429.84;1637091;87;20198;-82
2022/02/04 02:49:05;;;;;;;;;;;;;;;-9.68;91.35;99436.75;1633862;87;20117;-79
2022/02/04 02:54:30;;;;;;;;;;;;;;;-9.52;92.14;99447.14;1607049;89;20447;-80
2022/02/04 02:59:32;;;;;;;;;;;;;;;-9.45;92.40;99443.22;1636351;87;20120;-80
2022/02/04 03:01:53;;;;;;;;;;;;;;;-9.43;92.39;99447.33;1636079;87;20196;-80
2022/02/04 03:04:19;;;;;;;;;;;;;;;-9.47;91.91;99447.39;1636386;87;20359;-80
2022/02/04 03:06:47;;;;;;;;;;;;;;;-9.47;92.01;99450.56;1636293;87;20173;-76
2022/02/04 03:09:15;;;;;;;;;;;;;;;-9.47;91.89;99451.89;1636323;87;20483;-76
2022/02/04 03:11:42;;;;;;;;;;;;;;;-9.49;91.74;99454.73;1607260;89;20153;-76
2022/02/04 03:14:08;;;;;;;;;;;;;;;-9.51;91.54;99456.76;1636218;86;20221;-76
2022/02/04 03:16:34;;;;;;;;;;;;;;;-9.50;91.42;99462.89;1607326;89;20420;-75
2022/02/04 03:19:03;;;;;;;;;;;;;;;-9.49;91.77;99455.23;1636373;87;20154;-75
2022/02/04 03:21:35;;;;;;;;;;;;;;;-9.46;92.09;99455.69;1636656;87;20684;-75
2022/02/04 03:24:03;;;;;;;;;;;;;;;-9.41;92.38;99459.92;1636080;87;20177;-75
2022/02/04 03:26:42;;;;;;;;;;;;;;;-9.36;92.53;99456.70;1644416;86;20213;-75
2022/02/04 03:28:56;;;;;;;;;;;;;;;-9.31;92.66;99458.28;1659665;86;20197;-75
2022/02/04 03:31:25;;;;;;;;;;;;;;;-9.28;92.69;99459.74;1633872;87;20206;-75
2022/02/04 03:33:51;;;;;;;;;;;;;;;-9.29;92.32;99459.42;1660332;85;21190;-74
2022/02/04 03:36:17;;;;;;;;;;;;;;;-9.32;92.09;99454.48;1660698;86;20120;-75
2022/02/04 03:38:43;;;;;;;;;;;;;;;-9.32;92.10;99457.14;1660596;86;20122;-76
2022/02/04 03:41:11;;;;;;;;;;;;;;;-9.35;91.98;99461.83;1660721;86;20342;-76
2022/02/04 03:43:38;;;;;;;;;;;;;;;-9.39;91.88;99459.23;1683355;85;20176;-75
2022/02/04 03:46:05;;;;;;;;;;;;;;;-9.44;91.75;99466.13;1683607;85;21510;-78
2022/02/04 03:48:34;;;;;;;;;;;;;;;-9.48;92.45;99468.34;1683298;85;20144;-78
2022/02/04 03:51:00;;;;;;;;;;;;;;;-9.46;93.03;99470.30;1682853;85;20203;-78
2022/02/04 03:53:26;;;;;;;;;;;;;;;-9.47;92.85;99466.50;1683254;85;20362;-78
2022/02/04 03:55:53;;;;;;;;;;;;;;;-9.52;92.58;99467.58;1683388;85;20156;-77
2022/02/04 03:58:19;;;;;;;;;;;;;;;-9.55;92.59;99464.79;1683369;85;21101;-77
2022/02/04 04:00:45;;;;;;;;;;;;;;;-9.58;92.52;99467.82;1683565;85;20137;-76
2022/02/04 04:03:11;;;;;;;;;;;;;;;-9.60;92.72;99463.70;1683404;85;20115;-77
2022/02/04 04:05:44;;;;;;;;;;;;;;;-9.56;93.33;99466.30;1683289;85;20186;-76
2022/02/04 04:08:06;;;;;;;;;;;;;;;-9.55;93.33;99468.77;1682923;85;20183;-81
2022/02/04 04:10:39;;;;;;;;;;;;;;;-9.55;93.32;99465.30;1683413;85;21144;-81
2022/02/04 04:13:01;;;;;;;;;;;;;;;-9.55;93.33;99466.12;1682733;85;20104;-81
2022/02/04 04:15:27;;;;;;;;;;;;;;;-9.56;93.35;99460.48;1683716;85;20175;-81
2022/02/04 04:17:54;;;;;;;;;;;;;;;-9.60;93.18;99463.20;1683364;85;20168;-81
2022/02/04 04:20:22;;;;;;;;;;;;;;;-9.64;93.04;99464.59;1683375;85;20177;-81
2022/02/04 04:22:49;;;;;;;;;;;;;;;-9.64;93.03;99464.59;1683368;85;21104;-75
2022/02/04 04:25:16;;;;;;;;;;;;;;;-9.63;93.01;99464.91;1682075;85;20167;-73
2022/02/04 04:27:43;;;;;;;;;;;;;;;-9.61;93.07;99464.20;1628526;85;20188;-73
2022/02/04 04:30:13;;;;;;;;;;;;;;;-9.59;92.96;99461.37;1622358;88;20627;-70
2022/02/04 04:32:39;;;;;;;;;;;;;;;-9.61;92.68;99471.36;1635091;87;20147;-69
2022/02/04 04:35:10;;;;;;;;;;;;;;;-9.66;92.21;99465.28;1609896;88;20211;-69
2022/02/04 04:37:36;;;;;;;;;;;;;;;-9.72;91.95;99466.03;1628931;88;20778;-71
2022/02/04 04:42:59;;;;;;;;;;;;;;;-9.76;92.27;99466.91;1630008;88;20149;-69
2022/02/04 04:45:37;;;;;;;;;;;;;;;-9.73;92.35;99477.66;1626989;88;20188;-70
2022/02/04 05:26:21;;;;;;;;;;;;;;;-10.38;90.06;99511.19;1630113;87;20161;-71
2022/02/04 05:30:59;;;;;;;;;;;;;;;-10.38;90.17;99506.38;1635654;87;20106;-73
2022/02/04 05:33:25;;;;;;;;;;;;;;;-10.38;90.10;99509.86;1622451;87;20137;-70
2022/02/04 05:35:51;;;;;;;;;;;;;;;-10.36;90.17;99509.17;1619174;88;20194;-70
2022/02/04 05:38:20;;;;;;;;;;;;;;;-10.32;90.15;99511.47;1618936;88;20212;-71
2022/02/04 05:40:49;;;;;;;;;;;;;;;-10.31;90.12;99507.30;1618907;88;20116;-69
2022/02/04 05:43:23;;;;;;;;;;;;;;;-10.27;90.23;99519.70;1618979;88;20160;-69
2022/02/04 05:45:54;;;;;;;;;;;;;;;-10.25;90.15;99513.20;1618012;88;20136;-69
2022/02/04 05:48:12;;;;;;;;;;;;;;;-10.24;90.01;99513.53;1588427;88;20739;-69
2022/02/04 05:50:50;;;;;;;;;;;;;;;-10.24;89.99;99519.34;1596367;88;20166;-69
2022/02/04 05:53:20;;;;;;;;;;;;;;;-10.23;90.04;99516.51;1617223;88;21584;-69
2022/02/04 05:56:07;;;;;;;;;;;;;;;-10.20;90.06;99513.48;1618754;88;20152;-70
2022/02/04 05:58:34;;;;;;;;;;;;;;;-10.14;90.08;99514.55;1617505;88;20145;-71
2022/02/04 06:01:29;;;;;;;;;;;;;;;-10.08;90.17;99508.52;1617712;88;20174;-70
2022/02/04 06:06:13;;;;;;;;;;;;;;;-9.97;90.22;99521.33;1596419;88;21161;-69
2022/02/04 06:14:08;;;;;;;;;;;;;;;-9.80;92.26;99517.94;1618907;88;20648;-72
2022/02/04 06:24:24;;;;;;;;;;;;;;;-9.14;94.32;99516.00;1618965;88;20478;-71
2022/02/04 06:26:51;;;;;;;;;;;;;;;-8.92;95.32;99515.48;1620033;87;20201;-71
2022/02/04 06:29:17;;;;;;;;;;;;;;;-8.75;95.58;99508.38;1610981;88;20149;-72
2022/02/04 06:31:44;;;;;;;;;;;;;;;-8.61;95.56;99507.13;1635435;86;21108;-71
2022/02/04 06:34:10;;;;;;;;;;;;;;;-8.47;95.46;99504.87;1659685;86;20157;-70
2022/02/04 06:36:37;;;;;;;;;;;;;;;-8.34;95.80;99508.46;1659759;86;20456;-73
2022/02/04 06:39:03;;;;;;;;;;;;;;;-8.21;95.77;99510.36;1660023;86;20146;-69
2022/02/04 06:41:29;;;;;;;;;;;;;;;-8.11;95.48;99512.16;1660426;86;20177;-68
2022/02/04 06:43:56;;;;;;;;;;;;;;;-8.02;95.51;99509.62;1660108;86;21166;-69
2022/02/04 06:46:22;;;;;;;;;;;;;;;-7.88;95.52;99514.52;1659161;86;20141;-70
2022/02/04 06:48:49;;;;;;;;;;;;;;;-7.73;95.26;99517.86;1660284;86;20218;-73
2022/02/04 06:51:16;;;;;;;;;;;;;;;-7.61;94.82;99521.30;1660673;86;20641;-73
2022/02/04 06:53:42;;;;;;;;;;;;;;;-7.47;94.94;99520.30;1660391;86;20475;-74
2022/02/04 06:56:08;;;;;;;;;;;;;;;-7.28;94.86;99524.05;1660760;86;21492;-70
2022/02/04 06:58:34;;;;;;;;;;;;;;;-6.85;95.51;99527.19;1660484;86;20133;-68
2022/02/04 07:01:01;;;;;;;;;;;;;;;-6.28;94.42;99525.22;1660592;86;20109;-70
2022/02/04 07:03:27;;;;;;;;;;;;;;;-5.58;93.47;99522.22;1660702;86;20142;-78
2022/02/04 07:05:56;;;;;;;;;;;;;;;-5.01;90.28;99515.94;1660602;86;20472;-73
2022/02/04 07:08:29;;;;;;;;;;;;;;;-4.48;89.17;99509.36;1660672;86;21162;-70
2022/02/04 07:13:26;;;;;;;;;;;;;;;-3.82;82.84;99505.48;1635126;87;20243;-68
2022/02/04 07:15:53;;;;;;;;;;;;;;;-3.66;80.74;99500.88;1635787;87;20200;-69
2022/02/04 07:21:06;;;;;;;;;;;;;;;-3.45;76.67;99492.03;1635301;87;21941;-69
2022/02/04 07:23:34;;;;;;;;;;;;;;;-3.28;77.90;99493.05;1635203;87;20473;-68
2022/02/04 07:26:00;;;;;;;;;;;;;;;-3.12;75.62;99495.09;1614483;87;20176;-72
2022/02/04 07:28:27;;;;;;;;;;;;;;;-2.92;75.56;99498.84;1634986;87;20148;-71
2022/02/04 07:30:54;;;;;;;;;;;;;;;-2.66;74.94;99499.76;1635132;87;20144;-76
2022/02/04 07:33:35;;;;;;;;;;;;;;;-2.36;75.54;99498.87;1602650;88;40288;-71
2022/02/04 07:41:18;;;;;;;;;;;;;;;-1.71;69.85;99494.10;1619001;88;20154;-75
2022/02/04 07:43:45;;;;;;;;;;;;;;;-1.82;68.71;99487.42;1618936;88;20221;-68
2022/02/04 07:46:13;;;;;;;;;;;;;;;-1.77;68.11;99496.42;1618973;88;21139;-68
2022/02/04 07:48:40;;;;;;;;;;;;;;;-1.70;67.18;99491.70;1618911;88;20118;-68
2022/02/04 07:51:06;;;;;;;;;;;;;;;-1.77;66.40;99492.91;1619059;88;20128;-69
2022/02/04 07:53:34;;;;;;;;;;;;;;;-1.71;67.37;99491.41;1618986;88;20300;-79
2022/02/04 07:56:01;;;;;;;;;;;;;;;-1.49;65.94;99490.25;1619077;88;20149;-76
2022/02/04 07:58:28;;;;;;;;;;;;;;;-1.40;65.83;99489.34;1618929;88;21169;-72
2022/02/04 08:00:55;;;;;;;;;;;;;;;-1.34;65.13;99487.86;1618793;87;20176;-75
2022/02/04 08:03:31;;;;;;;;;;;;;;;-1.29;64.76;99485.80;1618914;88;20097;-77
2022/02/04 08:05:54;;;;;;;;;;;;;;;-1.22;63.78;99487.01;1617916;88;20454;-73
2022/02/04 08:08:27;;;;;;;;;;;;;;;-1.09;65.90;99489.38;1626921;87;20208;-76
2022/02/04 08:11:14;;;;;;;;;;;;;;;-1.01;63.83;99490.34;1613288;88;21195;-75
2022/02/04 08:21:44;;;;;;;;;;;;;;;-0.27;60.31;99482.95;1631960;87;20509;-62
2022/02/04 08:24:23;;;;;;;;;;;;;;;-0.22;59.35;99479.52;1629788;87;21117;-63
2022/02/04 08:27:01;;;;;;;;;;;;;;;-0.25;58.81;99485.40;1627093;87;20137;-64
2022/02/04 08:32:04;;;;;;;;;;;;;;;0.43;60.33;99478.23;1608352;86;20758;-65
2022/02/04 08:34:34;;;;;;;;;;;;;;;0.87;56.84;99478.19;1657575;86;20161;-65
2022/02/04 08:47:37;;;;;;;;;;;;;;;1.63;52.09;99465.34;1660731;86;20153;-76
2022/02/04 08:55:06;;;;;;;;;;;;;;;2.31;50.96;99460.87;1634090;88;20188;-76
2022/02/04 08:57:50;;;;;;;;;;;;;;;2.49;50.32;99459.04;1633903;87;20862;-68
2022/02/04 09:00:33;;;;;;;;;;;;;;;2.70;49.51;99466.70;1633398;87;20172;-69
2022/02/04 09:03:14;;;;;;;;;;;;;;;2.95;47.22;99474.89;1633952;87;21130;-68
2022/02/04 09:05:39;;;;;;;;;;;;;;;2.91;49.73;99468.91;1632841;87;20177;-65
2022/02/04 09:08:29;;;;;;;;;;;;;;;2.97;48.77;99470.55;1633309;87;20200;-65
2022/02/04 09:10:50;;;;;;;;;;;;;;;3.13;47.65;99470.86;1633134;87;20864;-66
2022/02/04 09:18:59;;;;;;;;;;;;;;;3.21;46.05;99463.55;1634339;88;20177;-65
2022/02/04 09:21:36;;;;;;;;;;;;;;;3.51;45.88;99461.92;1633434;88;20147;-66
2022/02/04 09:23:45;;;;;;;;;;;;;;;3.81;46.31;99457.02;1633282;87;20140;-69
2022/02/04 09:26:12;;;;;;;;;;;;;;;3.89;42.77;99445.06;1634092;88;20207;-62
2022/02/04 09:28:39;;;;;;;;;;;;;;;3.67;43.33;99454.59;1627192;88;21189;-65
2022/02/04 09:31:05;;;;;;;;;;;;;;;3.48;42.29;99456.49;1621561;88;21002;-68
2022/02/04 09:33:33;;;;;;;;;;;;;;;3.05;44.39;99454.30;1621037;87;20152;-65
2022/02/04 09:35:59;;;;;;;;;;;;;;;3.07;45.12;99452.95;1621537;88;20153;-66
2022/02/04 09:38:26;;;;;;;;;;;;;;;3.49;45.05;99455.41;1622746;88;20161;-66
2022/02/04 09:40:52;;;;;;;;;;;;;;;3.98;44.14;99447.50;1622904;88;21099;-68
2022/02/04 09:43:20;;;;;;;;;;;;;;;4.31;43.69;99443.85;1622953;87;20128;-66
2022/02/04 09:45:46;;;;;;;;;;;;;;;4.65;43.09;99442.05;1622967;87;20141;-66
2022/02/04 09:48:13;;;;;;;;;;;;;;;5.06;42.99;99441.03;1623073;88;20506;-67
2022/02/04 09:50:45;;;;;;;;;;;;;;;5.36;41.77;99441.34;1622983;88;20188;-67
2022/02/04 10:07:21;;;;;;;;;;;;;;;4.86;40.88;99435.16;1621585;88;21859;-73
2022/02/04 10:09:59;;;;;;;;;;;;;;;4.79;41.31;99437.37;1619229;88;20186;-66
2022/02/04 10:12:30;;;;;;;;;;;;;;;4.59;40.78;99433.69;1618675;88;20168;-68
2022/02/04 10:15:01;;;;;;;;;;;;;;;4.57;42.22;99430.98;1580117;88;20187;-66
2022/02/04 10:17:27;;;;;;;;;;;;;;;4.86;41.96;99431.08;1620399;88;20208;-69
2022/02/04 10:19:57;;;;;;;;;;;;;;;5.14;41.62;99429.00;1621614;88;21135;-68
2022/02/04 10:22:28;;;;;;;;;;;;;;;5.46;41.35;99426.28;1621651;88;20112;-67
2022/02/04 10:25:02;;;;;;;;;;;;;;;5.58;39.45;99425.37;1621896;88;20213;-67
2022/02/04 10:27:32;;;;;;;;;;;;;;;5.51;39.83;99427.61;1603108;88;20216;-68
2022/02/04 10:30:07;;;;;;;;;;;;;;;5.33;39.92;99426.38;1621361;88;20189;-66
2022/02/04 10:32:40;;;;;;;;;;;;;;;5.21;39.63;99430.01;1622052;87;21882;-69
2022/02/04 10:35:12;;;;;;;;;;;;;;;5.12;39.28;99427.11;1622904;87;20152;-70
2022/02/04 10:37:46;;;;;;;;;;;;;;;5.01;39.85;99424.73;1623021;87;20189;-69
2022/02/04 10:40:31;;;;;;;;;;;;;;;5.07;39.75;99423.61;1622048;87;20161;-70
2022/02/04 10:43:04;;;;;;;;;;;;;;;5.13;40.27;99418.39;1621138;88;20156;-68
2022/02/04 10:45:55;;;;;;;;;;;;;;;5.23;40.19;99419.66;1620644;88;21142;-67
2022/02/04 10:48:29;;;;;;;;;;;;;;;5.36;39.54;99418.20;1600700;88;20154;-68
2022/02/04 11:02:01;;;;;;;;;;;;;;;5.20;39.42;99410.14;1621760;88;20487;-73
2022/02/04 11:04:14;;;;;;;;;;;;;;;4.98;38.10;99404.34;1618731;88;20172;-70
2022/02/04 11:09:30;;;;;;;;;;;;;;;4.57;38.90;99401.08;1601858;88;20188;-74
2022/02/04 11:36:23;;;;;;;;;;;;;;;5.03;38.57;99382.55;1622776;88;20212;-65
2022/02/04 11:53:44;;;;;;;;;;;;;;;4.95;38.40;99366.28;1621682;88;21531;-67
2022/02/04 11:56:06;;;;;;;;;;;;;;;5.15;38.41;99367.22;1621028;88;20207;-67
2022/02/04 11:59:00;;;;;;;;;;;;;;;5.18;37.57;99367.47;1621547;88;20213;-67
2022/02/04 12:01:42;;;;;;;;;;;;;;;5.03;37.43;99363.50;1622929;88;20169;-65
2022/02/04 12:04:20;;;;;;;;;;;;;;;4.94;38.85;99353.77;1623042;88;20180;-65
2022/02/04 12:06:48;;;;;;;;;;;;;;;5.30;36.83;99352.09;1623031;88;21851;-64
2022/02/04 12:09:35;;;;;;;;;;;;;;;5.35;36.98;99347.16;1623109;88;20184;-66
2022/02/04 12:12:03;;;;;;;;;;;;;;;5.22;37.17;99353.52;1586064;88;20096;-69
2022/02/04 12:14:31;;;;;;;;;;;;;;;5.23;37.94;99353.79;1623098;88;20184;-67
2022/02/04 12:17:12;;;;;;;;;;;;;;;5.43;37.15;99364.23;1622982;88;20169;-68
2022/02/04 12:19:41;;;;;;;;;;;;;;;5.72;36.84;99362.33;1623402;88;21150;-67
2022/02/04 12:22:08;;;;;;;;;;;;;;;5.93;36.56;99354.20;1622924;88;20123;-69
2022/02/04 12:24:39;;;;;;;;;;;;;;;6.02;36.51;99359.83;1623008;88;20178;-68
2022/02/04 12:27:29;;;;;;;;;;;;;;;6.02;36.10;99357.65;1605937;88;20189;-68
2022/02/04 12:29:58;;;;;;;;;;;;;;;5.84;36.20;99354.54;1605744;88;20216;-71
2022/02/04 12:32:25;;;;;;;;;;;;;;;5.64;36.76;99363.77;1636670;86;21149;-69
2022/02/04 12:34:52;;;;;;;;;;;;;;;5.62;37.29;99362.42;1629602;88;20183;-68
2022/02/04 12:37:20;;;;;;;;;;;;;;;5.81;36.42;99358.39;1630027;87;20175;-68
2022/02/04 12:39:46;;;;;;;;;;;;;;;5.80;36.68;99367.66;1629761;87;20180;-68
2022/02/04 12:42:15;;;;;;;;;;;;;;;5.82;37.05;99362.19;1629878;88;20168;-67
2022/02/04 12:44:42;;;;;;;;;;;;;;;5.90;36.79;99366.23;1629751;88;21198;-70
2022/02/04 12:47:12;;;;;;;;;;;;;;;5.83;36.37;99360.28;1630062;88;20151;-69
2022/02/04 12:49:48;;;;;;;;;;;;;;;5.88;36.13;99368.39;1629667;88;20200;-69
2022/02/04 12:54:58;;;;;;;;;;;;;;;6.28;36.35;99359.78;1629773;88;20184;-73
2022/02/04 12:57:36;;;;;;;;;;;;;;;6.37;35.74;99361.83;1628360;87;20984;-71
2022/02/04 13:11:00;;;;;;;;;;;;;;;6.27;35.91;99357.35;1629000;88;20564;-71
2022/02/04 13:13:30;;;;;;;;;;;;;;;6.27;35.17;99360.08;1629541;88;20132;-67
2022/02/04 13:15:55;;;;;;;;;;;;;;;6.18;36.38;99352.28;1629581;88;20191;-69
2022/02/04 13:18:23;;;;;;;;;;;;;;;6.04;35.52;99355.45;1629596;88;20218;-66
2022/02/04 13:20:50;;;;;;;;;;;;;;;5.92;35.98;99353.13;1629682;88;20204;-73
2022/02/04 13:23:23;;;;;;;;;;;;;;;5.74;36.31;99351.95;1629757;88;21169;-67
2022/02/04 13:25:52;;;;;;;;;;;;;;;5.78;36.86;99352.97;1629583;88;20446;-67
2022/02/04 13:28:29;;;;;;;;;;;;;;;6.05;36.68;99350.26;1628711;88;20172;-70
2022/02/04 13:31:00;;;;;;;;;;;;;;;6.15;36.06;99354.23;1609638;88;20149;-69
2022/02/04 13:33:35;;;;;;;;;;;;;;;6.15;35.25;99350.14;1596466;88;20159;-67
2022/02/04 13:41:31;;;;;;;;;;;;;;;5.47;36.42;99353.04;1594780;89;20126;-69
2022/02/04 13:44:21;;;;;;;;;;;;;;;5.28;36.36;99344.22;1571781;89;20211;-71
2022/02/04 13:46:46;;;;;;;;;;;;;;;5.07;39.03;99347.42;1577434;89;20194;-67
2022/02/04 13:49:23;;;;;;;;;;;;;;;4.78;38.00;99350.08;1603117;89;21155;-70
2022/02/04 13:51:44;;;;;;;;;;;;;;;4.47;37.72;99348.12;1605666;89;20594;-70
2022/02/04 13:57:00;;;;;;;;;;;;;;;3.91;39.15;99349.20;1604906;89;20199;-73
2022/02/04 13:59:57;;;;;;;;;;;;;;;3.51;39.43;99348.75;1603708;89;20434;-68
2022/02/04 14:02:10;;;;;;;;;;;;;;;3.22;39.86;99345.81;1600298;89;21201;-68
2022/02/04 14:04:37;;;;;;;;;;;;;;;2.81;40.73;99351.80;1604483;89;20110;-70
2022/02/04 14:07:10;;;;;;;;;;;;;;;2.76;41.26;99357.75;1584745;89;20185;-71
2022/02/04 14:09:42;;;;;;;;;;;;;;;2.89;41.15;99358.02;1604851;89;20176;-69
2022/02/04 14:12:16;;;;;;;;;;;;;;;3.00;41.32;99354.77;1584437;89;20223;-73
2022/02/04 14:14:42;;;;;;;;;;;;;;;3.28;41.02;99356.94;1601468;89;21144;-66
2022/02/04 14:17:08;;;;;;;;;;;;;;;3.63;40.71;99356.05;1602310;89;20199;-69
2022/02/04 14:19:35;;;;;;;;;;;;;;;3.70;40.20;99356.31;1603120;89;20182;-70
2022/02/04 14:22:02;;;;;;;;;;;;;;;3.58;40.27;99357.42;1600378;89;20158;-67
2022/02/04 14:24:28;;;;;;;;;;;;;;;3.30;40.34;99361.55;1600046;89;20153;-68
2022/02/04 14:26:56;;;;;;;;;;;;;;;2.85;41.18;99365.09;1578752;89;21880;-69
2022/02/04 14:29:32;;;;;;;;;;;;;;;2.39;42.13;99369.59;1605609;87;20090;-70
2022/02/04 14:32:03;;;;;;;;;;;;;;;1.98;42.70;99365.94;1630211;87;20154;-69
2022/02/04 14:34:57;;;;;;;;;;;;;;;1.52;43.43;99370.30;1628992;87;20484;-72
2022/02/04 14:53:59;;;;;;;;;;;;;;;-0.80;50.37;99381.84;1577157;91;21184;-70
2022/02/04 14:59:25;;;;;;;;;;;;;;;-1.06;51.46;99387.34;1630339;88;20165;-70
2022/02/04 15:01:33;;;;;;;;;;;;;;;-1.17;51.71;99388.78;1617493;88;20446;-69
2022/02/04 15:04:03;;;;;;;;;;;;;;;-1.35;53.52;99392.50;1598622;89;20194;-72
2022/02/04 15:06:35;;;;;;;;;;;;;;;-1.59;53.56;99398.52;1607610;88;22330;-71
2022/02/04 15:08:58;;;;;;;;;;;;;;;-1.72;54.35;99400.95;1609253;88;20141;-70
2022/02/04 15:11:31;;;;;;;;;;;;;;;-1.75;54.04;99400.65;1632313;88;20234;-71
2022/02/04 15:13:55;;;;;;;;;;;;;;;-1.76;54.01;99413.81;1629335;88;20745;-70
2022/02/04 15:16:22;;;;;;;;;;;;;;;-1.83;53.83;99419.33;1630342;87;20196;-70
2022/02/04 15:18:48;;;;;;;;;;;;;;;-1.96;54.82;99416.91;1629814;88;20624;-69
2022/02/04 15:21:17;;;;;;;;;;;;;;;-2.11;55.31;99410.67;1629786;88;20446;-70
2022/02/04 15:23:46;;;;;;;;;;;;;;;-2.25;56.13;99409.28;1632751;88;20140;-69
2022/02/04 15:26:13;;;;;;;;;;;;;;;-2.42;56.71;99411.08;1630068;88;20180;-71
2022/02/04 15:33:53;;;;;;;;;;;;;;;-2.83;58.74;99419.53;1618156;88;20125;-70
2022/02/04 15:36:26;;;;;;;;;;;;;;;-2.96;59.09;99427.01;1618398;88;20526;-70
2022/02/04 15:38:53;;;;;;;;;;;;;;;-3.09;60.20;99424.81;1663874;86;20211;-72
2022/02/04 15:41:21;;;;;;;;;;;;;;;-3.20;60.27;99426.12;1663866;86;20343;-70
2022/02/04 15:43:53;;;;;;;;;;;;;;;-3.33;60.66;99428.48;1624712;87;21119;-73
2022/02/04 15:49:09;;;;;;;;;;;;;;;-3.54;62.05;99423.64;1629737;87;20159;-68
2022/02/04 15:51:35;;;;;;;;;;;;;;;-3.68;61.90;99425.67;1638304;87;20182;-68
2022/02/04 15:54:04;;;;;;;;;;;;;;;-3.87;62.23;99418.17;1599135;89;20212;-71
2022/02/04 15:59:28;;;;;;;;;;;;;;;-4.11;63.11;99420.45;1623821;87;20117;-67
2022/02/04 16:04:27;;;;;;;;;;;;;;;-4.31;63.81;99426.02;1631357;88;20148;-69
2022/02/04 16:06:53;;;;;;;;;;;;;;;-4.43;64.18;99424.59;1631186;88;20140;-68
2022/02/04 16:09:23;;;;;;;;;;;;;;;-4.53;64.47;99422.11;1631285;88;21141;-68
2022/02/04 16:12:02;;;;;;;;;;;;;;;-4.63;64.68;99424.50;1631197;88;20493;-69
2022/02/04 16:14:27;;;;;;;;;;;;;;;-4.75;64.99;99423.89;1629499;88;20204;-70
2022/02/04 16:17:00;;;;;;;;;;;;;;;-4.82;65.38;99427.14;1629113;87;20595;-70
2022/02/04 16:26:54;;;;;;;;;;;;;;;-5.13;66.79;99425.83;1620886;88;20194;-70
2022/02/04 16:29:16;;;;;;;;;;;;;;;-5.19;67.07;99424.84;1600964;88;20199;-69
2022/02/04 16:31:44;;;;;;;;;;;;;;;-5.27;67.63;99425.66;1609165;86;20479;-69
2022/02/04 16:34:12;;;;;;;;;;;;;;;-5.37;67.74;99432.30;1640384;87;21137;-70
2022/02/04 16:36:45;;;;;;;;;;;;;;;-5.45;67.94;99431.21;1637596;87;20192;-72
2022/02/04 16:39:12;;;;;;;;;;;;;;;-5.52;68.25;99433.10;1640395;87;20503;-71
2022/02/04 16:42:01;;;;;;;;;;;;;;;-5.57;68.79;99432.92;1611687;87;20198;-70
2022/02/04 16:44:17;;;;;;;;;;;;;;;-5.64;68.80;99434.81;1613083;87;20180;-69
2022/02/04 16:46:44;;;;;;;;;;;;;;;-5.70;69.15;99437.00;1638879;87;21140;-72
2022/02/04 16:49:12;;;;;;;;;;;;;;;-5.77;68.99;99438.88;1637150;87;20110;-70
2022/02/04 16:51:39;;;;;;;;;;;;;;;-5.84;68.97;99438.94;1641347;87;20160;-72
2022/02/04 16:54:06;;;;;;;;;;;;;;;-5.92;69.31;99442.40;1641033;87;20187;-71
2022/02/04 16:56:32;;;;;;;;;;;;;;;-5.97;70.06;99440.88;1641315;87;20187;-71
2022/02/04 16:59:00;;;;;;;;;;;;;;;-6.00;70.70;99436.77;1641151;87;21177;-70
2022/02/04 17:01:27;;;;;;;;;;;;;;;-6.04;70.96;99441.72;1641042;87;20186;-70
2022/02/04 17:03:54;;;;;;;;;;;;;;;-6.11;70.73;99440.91;1641027;87;20462;-71
2022/02/04 17:06:20;;;;;;;;;;;;;;;-6.17;70.91;99434.25;1641091;87;22199;-72
2022/02/04 17:08:49;;;;;;;;;;;;;;;-6.24;72.08;99436.94;1641059;87;20168;-71
2022/02/04 17:11:20;;;;;;;;;;;;;;;-6.30;71.92;99437.78;1641219;87;21214;-70
2022/02/04 17:13:43;;;;;;;;;;;;;;;-6.36;71.77;99439.47;1640665;87;20131;-70
2022/02/04 17:16:09;;;;;;;;;;;;;;;-6.42;71.79;99435.48;1641190;87;20494;-71
2022/02/04 17:18:35;;;;;;;;;;;;;;;-6.49;71.87;99444.83;1641076;87;20644;-71
2022/02/04 17:21:02;;;;;;;;;;;;;;;-6.54;71.95;99439.80;1641234;87;20191;-71
2022/02/04 17:23:31;;;;;;;;;;;;;;;-6.61;71.99;99441.15;1640836;87;21175;-70
2022/02/04 17:25:58;;;;;;;;;;;;;;;-6.69;72.12;99444.03;1640867;87;20177;-70
2022/02/04 17:28:29;;;;;;;;;;;;;;;-6.74;72.09;99446.50;1641138;87;20128;-70
2022/02/04 17:30:56;;;;;;;;;;;;;;;-6.77;72.10;99445.06;1636948;87;20676;-72
2022/02/04 17:33:23;;;;;;;;;;;;;;;-6.79;72.13;99449.78;1631763;88;20156;-70
2022/02/04 17:35:50;;;;;;;;;;;;;;;-6.81;72.35;99451.02;1632327;86;21257;-72
2022/02/04 17:38:17;;;;;;;;;;;;;;;-6.83;72.54;99451.73;1603452;88;20430;-71
2022/02/04 17:40:44;;;;;;;;;;;;;;;-6.91;72.29;99442.09;1632188;88;20131;-71
2022/02/04 17:43:11;;;;;;;;;;;;;;;-6.99;72.35;99448.98;1632212;88;22263;-70
2022/02/04 17:45:38;;;;;;;;;;;;;;;-7.03;72.85;99453.09;1631941;86;20181;-71
2022/02/04 17:48:11;;;;;;;;;;;;;;;-7.07;72.97;99455.34;1632317;88;21094;-71
2022/02/04 17:50:48;;;;;;;;;;;;;;;-7.12;72.98;99449.80;1631997;87;20504;-70
2022/02/04 17:53:13;;;;;;;;;;;;;;;-7.18;72.95;99453.28;1605211;88;20490;-72
2022/02/04 17:55:42;;;;;;;;;;;;;;;-7.22;72.99;99456.56;1625050;88;20661;-70
2022/02/04 17:58:23;;;;;;;;;;;;;;;-7.27;73.65;99451.01;1630817;88;20172;-70
2022/02/04 18:08:29;;;;;;;;;;;;;;;-7.46;73.88;99446.77;1601890;88;20191;-70
2022/02/04 18:10:56;;;;;;;;;;;;;;;-7.49;74.00;99445.84;1621470;87;20144;-69
2022/02/04 18:13:23;;;;;;;;;;;;;;;-7.53;73.90;99441.95;1620701;87;21217;-70
2022/02/04 18:15:50;;;;;;;;;;;;;;;-7.53;73.78;99439.30;1619275;88;20136;-69
2022/02/04 18:18:17;;;;;;;;;;;;;;;-7.53;73.91;99437.14;1619119;88;20129;-70
2022/02/04 18:20:43;;;;;;;;;;;;;;;-7.56;73.80;99443.70;1632169;88;20184;-72